createdAt,value
2022-10-09T00:02:31.072Z,5.60
2022-10-09T00:06:53.813Z,5.50
2022-10-09T00:11:26.015Z,5.40
2022-10-09T00:15:48.805Z,5.40
2022-10-09T00:20:11.964Z,5.40
2022-10-09T00:24:34.543Z,5.30
2022-10-09T00:28:57.919Z,5.20
2022-10-09T00:33:21.282Z,5.20
2022-10-09T00:37:43.925Z,5.10
2022-10-09T00:42:06.383Z,5.30
2022-10-09T00:46:50.043Z,5.40
2022-10-09T00:51:12.702Z,5.40
2022-10-09T00:55:36.147Z,5.30
2022-10-09T01:00:01.975Z,5.20
2022-10-09T01:04:24.688Z,5.10
2022-10-09T01:09:12.863Z,5.10
2022-10-09T01:14:00.066Z,5.00
2022-10-09T01:19:01.243Z,5.00
2022-10-09T01:23:48.462Z,5.00
2022-10-09T01:28:11.751Z,4.80
2022-10-09T01:32:40.003Z,4.70
2022-10-09T01:37:03.783Z,4.60
2022-10-09T01:41:26.895Z,4.70
2022-10-09T01:45:49.966Z,4.70
2022-10-09T01:50:25.385Z,4.60
2022-10-09T01:55:20.824Z,4.50
2022-10-09T01:59:45.196Z,4.50
2022-10-09T02:04:12.145Z,4.50
2022-10-09T02:08:37.703Z,4.50
2022-10-09T02:13:01.583Z,4.40
2022-10-09T02:17:31.864Z,4.40
2022-10-09T02:22:16.445Z,4.40
2022-10-09T02:26:39.703Z,4.40
2022-10-09T02:31:27.588Z,4.30
2022-10-09T02:35:49.723Z,4.10
2022-10-09T02:40:12.683Z,4.10
2022-10-09T02:44:34.985Z,4.10
2022-10-09T02:48:57.563Z,4.10
2022-10-09T02:53:19.944Z,4.20
2022-10-09T02:57:42.383Z,4.10
2022-10-09T03:02:04.953Z,4.20
2022-10-09T03:06:29.223Z,4.20
2022-10-09T03:10:51.543Z,4.20
2022-10-09T03:15:14.316Z,4.20
2022-10-09T03:19:36.582Z,4.10
2022-10-09T03:23:59.303Z,3.90
2022-10-09T03:28:21.912Z,3.80
2022-10-09T03:32:44.516Z,3.80
2022-10-09T03:37:06.849Z,3.90
2022-10-09T03:41:29.263Z,3.90
2022-10-09T03:45:52.084Z,3.80
2022-10-09T03:50:14.725Z,3.80
2022-10-09T03:54:37.064Z,3.80
2022-10-09T03:58:59.424Z,3.70
2022-10-09T04:03:22.585Z,3.60
2022-10-09T04:07:45.395Z,3.60
2022-10-09T04:12:08.243Z,3.50
2022-10-09T04:16:30.752Z,3.40
2022-10-09T04:20:56.087Z,3.40
2022-10-09T04:25:18.385Z,3.30
2022-10-09T04:29:40.523Z,3.40
2022-10-09T04:34:03.145Z,3.40
2022-10-09T04:38:25.947Z,3.30
2022-10-09T04:42:48.222Z,3.20
2022-10-09T04:47:11.512Z,3.10
2022-10-09T04:51:34.012Z,3.00
2022-10-09T04:55:56.243Z,3.10
2022-10-09T05:00:18.924Z,3.10
2022-10-09T05:04:41.163Z,3.20
2022-10-09T05:09:03.744Z,3.20
2022-10-09T05:13:26.384Z,3.10
2022-10-09T05:17:49.045Z,3.10
2022-10-09T05:22:11.585Z,3.20
2022-10-09T05:26:33.657Z,3.30
2022-10-09T05:30:56.523Z,3.40
2022-10-09T05:35:19.076Z,3.40
2022-10-09T05:39:41.741Z,3.50
2022-10-09T05:44:05.004Z,3.50
2022-10-09T05:48:27.765Z,3.90
2022-10-09T05:52:50.453Z,5.30
2022-10-09T05:57:13.085Z,6.90
2022-10-09T06:01:38.888Z,8.30
2022-10-09T06:06:09.767Z,9.80
2022-10-09T06:10:32.686Z,11.20
2022-10-09T06:14:55.103Z,12.90
2022-10-09T06:19:18.925Z,14.40
2022-10-09T06:23:42.021Z,15.60
2022-10-09T06:28:04.702Z,16.60
2022-10-09T06:32:27.164Z,18.10
2022-10-09T06:36:49.784Z,19.40
2022-10-09T06:41:18.963Z,20.70
2022-10-09T06:45:41.098Z,22.00
2022-10-09T06:50:03.905Z,22.70
2022-10-09T06:54:26.142Z,23.20
2022-10-09T06:58:49.386Z,24.10
2022-10-09T07:03:11.831Z,25.10
2022-10-09T07:07:34.256Z,25.80
2022-10-09T07:11:56.836Z,25.80
2022-10-09T07:16:26.209Z,26.00
2022-10-09T07:20:49.123Z,26.60
2022-10-09T07:25:12.537Z,27.10
2022-10-09T07:29:35.041Z,28.10
2022-10-09T07:33:57.824Z,28.80
2022-10-09T07:38:20.244Z,29.40
2022-10-09T07:42:42.503Z,30.00
2022-10-09T07:47:04.916Z,30.40
2022-10-09T07:51:29.557Z,30.20
2022-10-09T07:55:52.203Z,30.20
2022-10-09T08:00:15.135Z,30.10
2022-10-09T08:04:38.116Z,30.60
2022-10-09T08:09:02.909Z,30.30
2022-10-09T08:13:25.204Z,29.60
2022-10-09T08:17:47.585Z,30.20
2022-10-09T08:22:09.844Z,31.20
2022-10-09T08:26:32.589Z,32.20
2022-10-09T08:30:55.151Z,32.50
2022-10-09T08:35:17.963Z,33.50
2022-10-09T08:39:40.239Z,34.90
2022-10-09T08:44:17.404Z,35.20
2022-10-09T08:48:44.718Z,35.80
2022-10-09T08:53:42.817Z,34.70
2022-10-09T08:58:07.049Z,32.20
2022-10-09T09:02:48.038Z,33.00
2022-10-09T09:08:05.854Z,32.90
2022-10-09T09:12:36.743Z,33.00
2022-10-09T09:17:57.332Z,32.30
2022-10-09T09:22:19.967Z,31.00
2022-10-09T09:26:46.163Z,31.00
2022-10-09T09:31:25.239Z,31.80
2022-10-09T09:36:06.523Z,31.90
2022-10-09T09:40:37.223Z,32.90
2022-10-09T09:45:06.838Z,32.90
2022-10-09T09:49:30.320Z,31.40
2022-10-09T09:53:55.823Z,32.00
2022-10-09T09:58:18.608Z,31.30
2022-10-09T10:02:40.795Z,30.40
2022-10-09T10:07:06.137Z,29.50
2022-10-09T10:11:30.917Z,29.30
2022-10-09T10:15:58.302Z,28.80
2022-10-09T10:20:20.899Z,28.90
2022-10-09T10:24:46.810Z,29.50
2022-10-09T10:29:39.063Z,29.70
2022-10-09T10:34:03.784Z,28.10
2022-10-09T10:38:36.303Z,28.50
2022-10-09T10:43:10.944Z,29.10
2022-10-09T10:47:41.125Z,28.90
2022-10-09T10:52:06.209Z,29.10
2022-10-09T10:56:43.204Z,29.10
2022-10-09T11:01:51.048Z,27.50
2022-10-09T11:06:52.635Z,26.10
2022-10-09T11:11:33.983Z,25.40
2022-10-09T11:16:02.462Z,24.90
2022-10-09T11:20:55.464Z,26.00
2022-10-09T11:25:27.685Z,27.30
2022-10-09T11:29:58.846Z,29.20
2022-10-09T11:34:43.950Z,28.00
2022-10-09T11:39:23.178Z,26.40
2022-10-09T11:44:20.812Z,25.70
2022-10-09T11:49:32.025Z,24.90
2022-10-09T11:53:55.104Z,23.40
2022-10-09T11:58:20.304Z,23.20
2022-10-09T12:02:44.619Z,22.10
2022-10-09T12:07:09.624Z,21.30
2022-10-09T12:11:34.964Z,20.80
2022-10-09T12:15:59.964Z,19.20
2022-10-09T12:20:25.564Z,18.10
2022-10-09T12:24:55.546Z,17.40
2022-10-09T12:29:34.906Z,17.00
2022-10-09T12:34:04.684Z,16.80
2022-10-09T12:38:31.888Z,16.70
2022-10-09T12:42:55.363Z,16.50
2022-10-09T12:47:28.123Z,16.30
2022-10-09T12:51:58.783Z,16.20
2022-10-09T12:56:44.221Z,15.90
2022-10-09T13:01:14.029Z,15.70
2022-10-09T13:05:42.424Z,15.70
2022-10-09T13:10:22.937Z,15.50
2022-10-09T13:14:58.564Z,15.40
2022-10-09T13:19:35.506Z,15.50
2022-10-09T13:24:12.224Z,15.60
2022-10-09T13:28:34.973Z,15.70
2022-10-09T13:32:58.124Z,15.70
2022-10-09T13:37:23.746Z,15.60
2022-10-09T13:41:48.648Z,15.60
2022-10-09T13:46:11.174Z,15.60
2022-10-09T13:50:33.815Z,15.50
2022-10-09T13:54:56.296Z,15.30
2022-10-09T13:59:18.593Z,15.30
2022-10-09T14:03:41.147Z,15.10
2022-10-09T14:08:03.347Z,15.10
2022-10-09T14:12:25.530Z,14.90
2022-10-09T14:16:48.704Z,14.90
2022-10-09T14:21:15.328Z,14.90
2022-10-09T14:25:37.921Z,14.80
2022-10-09T14:30:00.331Z,14.80
2022-10-09T14:34:22.854Z,14.80
2022-10-09T14:38:46.804Z,14.70
2022-10-09T14:43:09.385Z,14.60
2022-10-09T14:47:32.344Z,14.50
2022-10-09T14:51:55.743Z,14.50
2022-10-09T14:56:21.092Z,14.40
2022-10-09T15:00:47.868Z,14.30
2022-10-09T15:05:10.178Z,14.30
2022-10-09T15:09:32.645Z,14.20
2022-10-09T15:13:55.684Z,14.10
2022-10-09T15:18:18.094Z,14.10
2022-10-09T15:22:40.726Z,14.00
2022-10-09T15:27:03.423Z,13.90
2022-10-09T15:31:29.787Z,13.90
2022-10-09T15:35:54.490Z,13.70
2022-10-09T15:40:17.283Z,13.60
2022-10-09T15:44:41.584Z,13.60
2022-10-09T15:49:04.003Z,13.50
2022-10-09T15:53:26.696Z,13.30
2022-10-09T15:57:49.209Z,13.10
2022-10-09T16:02:12.263Z,13.00
2022-10-09T16:06:34.857Z,12.80
2022-10-09T16:10:57.874Z,12.50
2022-10-09T16:15:20.424Z,12.30
2022-10-09T16:19:43.346Z,12.10
2022-10-09T16:24:05.724Z,11.90
2022-10-09T16:28:28.455Z,11.60
2022-10-09T16:32:52.835Z,11.40
2022-10-09T16:37:15.344Z,11.10
2022-10-09T16:41:41.781Z,10.90
2022-10-09T16:46:24.730Z,10.60
2022-10-09T16:50:47.048Z,10.40
2022-10-09T16:55:09.864Z,10.10
2022-10-09T16:59:32.172Z,9.90
2022-10-09T17:03:57.294Z,9.70
2022-10-09T17:08:19.601Z,9.60
2022-10-09T17:12:42.795Z,9.40
2022-10-09T17:17:08.277Z,9.10
2022-10-09T17:21:34.468Z,9.10
2022-10-09T17:25:57.563Z,9.10
2022-10-09T17:30:20.135Z,9.00
2022-10-09T17:34:46.029Z,8.90
2022-10-09T17:39:13.680Z,8.90
2022-10-09T17:43:37.904Z,8.90
2022-10-09T17:48:00.366Z,8.70
2022-10-09T17:52:22.720Z,8.60
2022-10-09T17:56:45.397Z,8.60
2022-10-09T18:01:09.585Z,8.60
2022-10-09T18:05:32.704Z,8.60
2022-10-09T18:09:55.062Z,8.50
2022-10-09T18:14:17.491Z,8.50
2022-10-09T18:18:39.851Z,8.30
2022-10-09T18:23:02.285Z,8.30
2022-10-09T18:27:25.043Z,8.30
2022-10-09T18:31:47.563Z,8.00
2022-10-09T18:36:20.784Z,7.90
2022-10-09T18:40:45.939Z,7.70
2022-10-09T18:45:12.974Z,7.60
2022-10-09T18:49:35.459Z,7.40
2022-10-09T18:54:03.077Z,7.10
2022-10-09T18:58:25.407Z,7.00
2022-10-09T19:02:48.080Z,6.80
2022-10-09T19:07:12.063Z,6.60
2022-10-09T19:11:35.424Z,6.60
2022-10-09T19:15:59.063Z,6.70
2022-10-09T19:20:21.146Z,6.80
2022-10-09T19:24:44.267Z,6.70
2022-10-09T19:29:08.182Z,6.70
2022-10-09T19:33:30.463Z,6.60
2022-10-09T19:37:53.175Z,6.50
2022-10-09T19:42:17.463Z,6.40
2022-10-09T19:46:40.795Z,6.30
2022-10-09T19:51:13.411Z,6.20
2022-10-09T19:55:36.383Z,6.10
2022-10-09T19:59:58.625Z,6.10
2022-10-09T20:04:20.584Z,6.10
2022-10-09T20:08:45.350Z,6.10
2022-10-09T20:13:08.984Z,6.10
2022-10-09T20:17:31.174Z,6.00
2022-10-09T20:21:53.305Z,5.90
2022-10-09T20:26:19.343Z,5.80
2022-10-09T20:30:43.062Z,5.60
2022-10-09T20:35:05.903Z,5.50
2022-10-09T20:39:28.263Z,5.30
2022-10-09T20:43:55.478Z,5.10
2022-10-09T20:48:17.926Z,5.00
2022-10-09T20:52:40.682Z,4.80
2022-10-09T20:57:03.564Z,4.70
2022-10-09T21:01:28.296Z,4.60
2022-10-09T21:05:51.023Z,4.60
2022-10-09T21:10:13.325Z,4.50
2022-10-09T21:14:37.183Z,4.80
2022-10-09T21:19:02.963Z,5.00
2022-10-09T21:23:25.703Z,5.40
2022-10-09T21:27:47.804Z,5.60
2022-10-09T21:32:10.595Z,5.60
2022-10-09T21:37:19.402Z,5.60
2022-10-09T21:41:35.401Z,5.60
2022-10-09T21:45:57.663Z,5.70
2022-10-09T21:50:19.985Z,5.50
2022-10-09T21:54:42.075Z,5.30
2022-10-09T21:59:04.443Z,5.20
2022-10-09T22:03:29.424Z,5.10
2022-10-09T22:07:51.965Z,5.00
2022-10-09T22:12:14.584Z,5.10
2022-10-09T22:16:37.025Z,5.10
2022-10-09T22:21:10.163Z,5.40
2022-10-09T22:25:34.023Z,5.70
2022-10-09T22:29:59.403Z,5.90
2022-10-09T22:34:21.523Z,6.30
2022-10-09T22:38:45.811Z,6.60
2022-10-09T22:43:08.543Z,7.00
2022-10-09T22:47:31.303Z,7.40
2022-10-09T22:51:53.963Z,7.80
2022-10-09T22:56:25.905Z,8.20
2022-10-09T23:00:48.343Z,8.30
2022-10-09T23:05:10.683Z,8.40
2022-10-09T23:09:33.383Z,8.60
2022-10-09T23:14:01.143Z,8.60
2022-10-09T23:18:23.466Z,8.50
2022-10-09T23:22:45.795Z,8.30
2022-10-09T23:27:07.976Z,8.20
2022-10-09T23:31:31.142Z,8.10
2022-10-09T23:35:53.223Z,8.00
2022-10-09T23:40:16.244Z,8.10
2022-10-09T23:44:38.423Z,8.10
2022-10-09T23:49:01.407Z,8.10
2022-10-09T23:53:26.303Z,8.00
2022-10-09T23:57:48.623Z,8.00
